sensor_id;sensor_type;location;lat;lon;timestamp;pressure;altitude;pressure_sealevel;temperature;humidity
54146;BME280;40052;49.422;7.738;2022-08-19T00:01:46;73401.22;;;-145.25;64.64
54146;BME280;40052;49.422;7.738;2022-08-19T00:04:14;73395.22;;;-145.25;64.43
54146;BME280;40052;49.422;7.738;2022-08-19T00:06:41;73403.25;;;-145.25;64.15
54146;BME280;40052;49.422;7.738;2022-08-19T00:09:10;73403.25;;;-145.25;63.72
54146;BME280;40052;49.422;7.738;2022-08-19T00:11:38;73371.19;;;-145.25;63.03
54146;BME280;40052;49.422;7.738;2022-08-19T00:14:06;73363.16;;;-145.25;62.35
54146;BME280;40052;49.422;7.738;2022-08-19T00:16:33;73353.16;;;-145.25;62.71
54146;BME280;40052;49.422;7.738;2022-08-19T00:18:59;73351.16;;;-145.25;62.99
54146;BME280;40052;49.422;7.738;2022-08-19T00:21:27;73363.16;;;-145.25;63.25
54146;BME280;40052;49.422;7.738;2022-08-19T00:23:54;73377.19;;;-145.25;64.20
54146;BME280;40052;49.422;7.738;2022-08-19T00:26:20;73387.22;;;-145.25;64.72
54146;BME280;40052;49.422;7.738;2022-08-19T00:28:45;73379.19;;;-145.25;63.94
54146;BME280;40052;49.422;7.738;2022-08-19T00:31:12;73379.19;;;-145.25;63.15
54146;BME280;40052;49.422;7.738;2022-08-19T00:33:37;73381.19;;;-145.25;62.54
54146;BME280;40052;49.422;7.738;2022-08-19T00:36:06;73373.19;;;-145.25;62.25
54146;BME280;40052;49.422;7.738;2022-08-19T00:38:34;73383.19;;;-145.25;62.25
54146;BME280;40052;49.422;7.738;2022-08-19T00:41:02;73383.19;;;-145.25;62.24
54146;BME280;40052;49.422;7.738;2022-08-19T00:43:28;73387.22;;;-145.25;63.10
54146;BME280;40052;49.422;7.738;2022-08-19T00:45:54;73371.19;;;-145.25;62.08
54146;BME280;40052;49.422;7.738;2022-08-19T00:48:20;73379.19;;;-145.25;62.46
54146;BME280;40052;49.422;7.738;2022-08-19T00:50:47;73389.22;;;-145.25;63.50
54146;BME280;40052;49.422;7.738;2022-08-19T00:53:15;73371.19;;;-145.25;63.62
54146;BME280;40052;49.422;7.738;2022-08-19T00:55:46;73371.19;;;-145.25;64.07
54146;BME280;40052;49.422;7.738;2022-08-19T00:58:19;73371.19;;;-145.25;63.49
54146;BME280;40052;49.422;7.738;2022-08-19T01:00:47;73371.19;;;-145.25;62.81
54146;BME280;40052;49.422;7.738;2022-08-19T01:03:17;73379.19;;;-145.25;63.77
54146;BME280;40052;49.422;7.738;2022-08-19T01:05:48;73375.19;;;-145.25;64.39
54146;BME280;40052;49.422;7.738;2022-08-19T01:08:17;73379.19;;;-145.25;64.43
54146;BME280;40052;49.422;7.738;2022-08-19T01:10:47;73383.19;;;-145.25;64.54
54146;BME280;40052;49.422;7.738;2022-08-19T01:13:16;73379.19;;;-145.25;64.83
54146;BME280;40052;49.422;7.738;2022-08-19T01:15:52;73375.19;;;-145.25;64.83
54146;BME280;40052;49.422;7.738;2022-08-19T01:18:19;73373.19;;;-145.25;64.72
54146;BME280;40052;49.422;7.738;2022-08-19T01:20:46;73371.19;;;-145.25;64.94
54146;BME280;40052;49.422;7.738;2022-08-19T01:23:14;73379.19;;;-145.25;65.28
54146;BME280;40052;49.422;7.738;2022-08-19T01:25:52;73397.22;;;-145.25;65.90
54146;BME280;40052;49.422;7.738;2022-08-19T01:28:23;73415.25;;;-145.25;65.90
54146;BME280;40052;49.422;7.738;2022-08-19T01:30:52;73417.25;;;-145.25;65.38
54146;BME280;40052;49.422;7.738;2022-08-19T01:33:19;73413.25;;;-145.25;64.86
54146;BME280;40052;49.422;7.738;2022-08-19T01:35:48;73413.25;;;-145.25;64.91
54146;BME280;40052;49.422;7.738;2022-08-19T01:38:26;73413.25;;;-145.25;65.35
54146;BME280;40052;49.422;7.738;2022-08-19T01:40:56;73393.22;;;-145.25;64.36
54146;BME280;40052;49.422;7.738;2022-08-19T01:43:25;73383.19;;;-145.25;64.07
54146;BME280;40052;49.422;7.738;2022-08-19T01:45:51;73389.22;;;-145.25;64.34
54146;BME280;40052;49.422;7.738;2022-08-19T01:48:17;73395.22;;;-145.25;64.66
54146;BME280;40052;49.422;7.738;2022-08-19T01:50:43;73425.28;;;-145.25;65.28
54146;BME280;40052;49.422;7.738;2022-08-19T01:53:12;73407.25;;;-145.25;64.85
54146;BME280;40052;49.422;7.738;2022-08-19T01:55:42;73423.28;;;-145.25;64.91
54146;BME280;40052;49.422;7.738;2022-08-19T01:58:12;73425.28;;;-145.25;64.36
54146;BME280;40052;49.422;7.738;2022-08-19T02:00:42;73425.28;;;-145.25;64.80
54146;BME280;40052;49.422;7.738;2022-08-19T02:03:08;73435.28;;;-145.25;65.12
54146;BME280;40052;49.422;7.738;2022-08-19T02:05:34;73435.28;;;-145.25;64.96
54146;BME280;40052;49.422;7.738;2022-08-19T02:07:59;73429.28;;;-145.25;64.26
54146;BME280;40052;49.422;7.738;2022-08-19T02:10:25;73423.28;;;-145.25;64.29
54146;BME280;40052;49.422;7.738;2022-08-19T02:12:52;73425.28;;;-145.25;64.19
54146;BME280;40052;49.422;7.738;2022-08-19T02:15:19;73431.28;;;-145.25;64.64
54146;BME280;40052;49.422;7.738;2022-08-19T02:17:46;73435.28;;;-145.25;64.20
54146;BME280;40052;49.422;7.738;2022-08-19T02:20:15;73421.28;;;-145.25;64.52
54146;BME280;40052;49.422;7.738;2022-08-19T02:22:41;73431.28;;;-145.25;64.65
54146;BME280;40052;49.422;7.738;2022-08-19T02:25:08;73431.28;;;-145.25;64.77
54146;BME280;40052;49.422;7.738;2022-08-19T02:27:34;73435.28;;;-145.25;64.75
54146;BME280;40052;49.422;7.738;2022-08-19T02:30:00;73423.28;;;-145.25;64.59
54146;BME280;40052;49.422;7.738;2022-08-19T02:32:28;73427.28;;;-145.25;64.59
54146;BME280;40052;49.422;7.738;2022-08-19T02:34:55;73429.28;;;-145.25;65.15
54146;BME280;40052;49.422;7.738;2022-08-19T02:37:20;73433.28;;;-145.25;65.38
54146;BME280;40052;49.422;7.738;2022-08-19T02:40:08;73437.28;;;-145.25;65.27
54146;BME280;40052;49.422;7.738;2022-08-19T02:42:34;73443.31;;;-145.25;65.86
54146;BME280;40052;49.422;7.738;2022-08-19T02:45:02;73457.31;;;-145.25;66.25
54146;BME280;40052;49.422;7.738;2022-08-19T02:47:28;73473.34;;;-145.25;66.48
54146;BME280;40052;49.422;7.738;2022-08-19T02:49:53;73471.34;;;-145.25;65.71
54146;BME280;40052;49.422;7.738;2022-08-19T02:52:18;73463.34;;;-145.25;65.35
54146;BME280;40052;49.422;7.738;2022-08-19T02:54:46;73457.31;;;-145.25;65.07
54146;BME280;40052;49.422;7.738;2022-08-19T02:57:11;73469.34;;;-145.25;65.33
54146;BME280;40052;49.422;7.738;2022-08-19T02:59:37;73471.34;;;-145.25;65.49
54146;BME280;40052;49.422;7.738;2022-08-19T03:02:02;73465.34;;;-145.25;65.19
54146;BME280;40052;49.422;7.738;2022-08-19T03:04:28;73471.34;;;-145.25;65.35
54146;BME280;40052;49.422;7.738;2022-08-19T03:06:54;73469.34;;;-145.25;65.79
54146;BME280;40052;49.422;7.738;2022-08-19T03:09:24;73487.38;;;-145.25;66.53
54146;BME280;40052;49.422;7.738;2022-08-19T03:11:52;73495.38;;;-145.25;66.98
54146;BME280;40052;49.422;7.738;2022-08-19T03:14:20;73487.38;;;-145.25;67.07
54146;BME280;40052;49.422;7.738;2022-08-19T03:16:49;73491.38;;;-145.25;67.33
54146;BME280;40052;49.422;7.738;2022-08-19T03:19:19;73481.38;;;-145.25;66.09
54146;BME280;40052;49.422;7.738;2022-08-19T03:21:46;73489.38;;;-145.25;66.71
54146;BME280;40052;49.422;7.738;2022-08-19T03:24:15;73489.38;;;-145.25;66.40
54146;BME280;40052;49.422;7.738;2022-08-19T03:26:44;73491.38;;;-145.25;66.72
54146;BME280;40052;49.422;7.738;2022-08-19T03:29:10;73497.41;;;-145.25;67.05
54146;BME280;40052;49.422;7.738;2022-08-19T03:31:37;73511.41;;;-145.25;67.08
54146;BME280;40052;49.422;7.738;2022-08-19T03:34:04;73513.41;;;-145.25;66.92
54146;BME280;40052;49.422;7.738;2022-08-19T03:36:30;73529.44;;;-145.25;67.31
54146;BME280;40052;49.422;7.738;2022-08-19T03:39:00;73535.47;;;-145.25;67.82
54146;BME280;40052;49.422;7.738;2022-08-19T03:41:29;73543.47;;;-145.25;68.15
54146;BME280;40052;49.422;7.738;2022-08-19T03:43:57;73537.47;;;-145.25;68.17
54146;BME280;40052;49.422;7.738;2022-08-19T03:46:28;73545.47;;;-145.25;68.06
54146;BME280;40052;49.422;7.738;2022-08-19T03:48:59;73561.50;;;-145.25;68.22
54146;BME280;40052;49.422;7.738;2022-08-19T03:51:28;73555.50;;;-145.25;67.83
54146;BME280;40052;49.422;7.738;2022-08-19T03:53:54;73539.47;;;-145.25;67.09
54146;BME280;40052;49.422;7.738;2022-08-19T03:56:21;73531.44;;;-145.25;66.29
54146;BME280;40052;49.422;7.738;2022-08-19T03:58:53;73535.47;;;-145.25;66.16
54146;BME280;40052;49.422;7.738;2022-08-19T04:01:23;73539.47;;;-145.25;66.05
54146;BME280;40052;49.422;7.738;2022-08-19T04:03:52;73533.47;;;-145.25;65.84
54146;BME280;40052;49.422;7.738;2022-08-19T04:06:19;73513.41;;;-145.25;65.25
54146;BME280;40052;49.422;7.738;2022-08-19T04:08:49;73509.41;;;-145.25;65.19
54146;BME280;40052;49.422;7.738;2022-08-19T04:11:18;73527.44;;;-145.25;65.63
54146;BME280;40052;49.422;7.738;2022-08-19T04:13:44;73519.44;;;-145.25;65.32
54146;BME280;40052;49.422;7.738;2022-08-19T04:16:10;73521.44;;;-145.25;66.38
54146;BME280;40052;49.422;7.738;2022-08-19T04:18:39;73535.47;;;-145.25;66.25
54146;BME280;40052;49.422;7.738;2022-08-19T04:21:06;73543.47;;;-145.25;66.59
54146;BME280;40052;49.422;7.738;2022-08-19T04:23:34;73561.50;;;-145.25;67.17
54146;BME280;40052;49.422;7.738;2022-08-19T04:26:01;73547.47;;;-145.25;67.25
54146;BME280;40052;49.422;7.738;2022-08-19T04:28:27;73551.50;;;-145.25;67.28
54146;BME280;40052;49.422;7.738;2022-08-19T04:30:56;73543.47;;;-145.25;67.29
54146;BME280;40052;49.422;7.738;2022-08-19T04:33:25;73541.47;;;-145.25;67.40
54146;BME280;40052;49.422;7.738;2022-08-19T04:35:52;73573.53;;;-145.25;67.85
54146;BME280;40052;49.422;7.738;2022-08-19T04:38:20;73599.56;;;-145.25;68.98
54146;BME280;40052;49.422;7.738;2022-08-19T04:40:49;73595.56;;;-145.25;69.01
54146;BME280;40052;49.422;7.738;2022-08-19T04:43:36;73581.53;;;-145.25;68.43
54146;BME280;40052;49.422;7.738;2022-08-19T04:46:10;73575.53;;;-145.25;67.93
54146;BME280;40052;49.422;7.738;2022-08-19T04:48:36;73593.56;;;-145.25;68.51
54146;BME280;40052;49.422;7.738;2022-08-19T04:51:07;73587.56;;;-145.25;68.29
54146;BME280;40052;49.422;7.738;2022-08-19T04:53:35;73611.59;;;-145.25;69.22
54146;BME280;40052;49.422;7.738;2022-08-19T04:56:21;73613.59;;;-145.25;69.60
54146;BME280;40052;49.422;7.738;2022-08-19T04:58:50;73607.59;;;-145.25;69.61
54146;BME280;40052;49.422;7.738;2022-08-19T05:01:23;73591.56;;;-145.25;69.34
54146;BME280;40052;49.422;7.738;2022-08-19T05:03:49;73593.56;;;-145.25;69.04
54146;BME280;40052;49.422;7.738;2022-08-19T05:06:19;73599.56;;;-145.25;69.14
54146;BME280;40052;49.422;7.738;2022-08-19T05:08:48;73599.56;;;-145.25;68.80
54146;BME280;40052;49.422;7.738;2022-08-19T05:11:22;73591.56;;;-145.25;69.03
54146;BME280;40052;49.422;7.738;2022-08-19T05:13:51;73593.56;;;-145.25;68.98
54146;BME280;40052;49.422;7.738;2022-08-19T05:16:18;73621.59;;;-145.25;70.36
54146;BME280;40052;49.422;7.738;2022-08-19T05:18:44;73625.63;;;-145.25;70.55
54146;BME280;40052;49.422;7.738;2022-08-19T05:21:32;73621.59;;;-145.25;70.76
54146;BME280;40052;49.422;7.738;2022-08-19T05:24:22;73621.59;;;-145.25;70.94
54146;BME280;40052;49.422;7.738;2022-08-19T05:26:50;73619.59;;;-145.25;70.89
54146;BME280;40052;49.422;7.738;2022-08-19T05:29:19;73611.59;;;-145.25;69.80
54146;BME280;40052;49.422;7.738;2022-08-19T05:31:46;73601.56;;;-145.25;69.01
54146;BME280;40052;49.422;7.738;2022-08-19T05:34:12;73631.63;;;-145.25;70.09
54146;BME280;40052;49.422;7.738;2022-08-19T05:36:42;73619.59;;;-145.25;69.73
54146;BME280;40052;49.422;7.738;2022-08-19T05:39:16;73599.56;;;-145.25;69.12
54146;BME280;40052;49.422;7.738;2022-08-19T05:41:43;73577.53;;;-145.25;68.56
54146;BME280;40052;49.422;7.738;2022-08-19T05:44:11;73579.53;;;-145.25;69.05
54146;BME280;40052;49.422;7.738;2022-08-19T05:46:39;73579.53;;;-145.25;69.09
54146;BME280;40052;49.422;7.738;2022-08-19T05:49:06;73579.53;;;-145.25;68.79
54146;BME280;40052;49.422;7.738;2022-08-19T05:51:34;73555.50;;;-145.25;67.59
54146;BME280;40052;49.422;7.738;2022-08-19T05:54:01;73565.50;;;-145.25;66.92
54146;BME280;40052;49.422;7.738;2022-08-19T05:56:27;73547.47;;;-145.25;66.45
54146;BME280;40052;49.422;7.738;2022-08-19T05:58:58;73533.47;;;-145.25;66.28
54146;BME280;40052;49.422;7.738;2022-08-19T06:01:25;73519.44;;;-145.25;65.73
54146;BME280;40052;49.422;7.738;2022-08-19T06:03:51;73525.44;;;-145.25;65.73
54146;BME280;40052;49.422;7.738;2022-08-19T06:06:17;73527.44;;;-145.25;65.63
54146;BME280;40052;49.422;7.738;2022-08-19T06:08:43;73523.44;;;-145.25;65.72
54146;BME280;40052;49.422;7.738;2022-08-19T06:11:23;73509.41;;;-145.25;64.95
54146;BME280;40052;49.422;7.738;2022-08-19T06:13:51;73513.41;;;-145.25;65.18
54146;BME280;40052;49.422;7.738;2022-08-19T06:16:23;73503.41;;;-145.25;64.61
54146;BME280;40052;49.422;7.738;2022-08-19T06:18:50;73505.41;;;-145.25;63.85
54146;BME280;40052;49.422;7.738;2022-08-19T06:21:22;73499.41;;;-145.25;64.12
54146;BME280;40052;49.422;7.738;2022-08-19T06:23:51;73479.38;;;-145.25;63.60
54146;BME280;40052;49.422;7.738;2022-08-19T06:26:18;73479.38;;;-145.25;63.13
54146;BME280;40052;49.422;7.738;2022-08-19T06:28:44;73471.34;;;-145.25;63.22
54146;BME280;40052;49.422;7.738;2022-08-19T06:31:17;73477.34;;;-145.25;63.68
54146;BME280;40052;49.422;7.738;2022-08-19T06:33:48;73455.31;;;-145.25;63.25
54146;BME280;40052;49.422;7.738;2022-08-19T06:36:25;73459.34;;;-145.25;63.45
54146;BME280;40052;49.422;7.738;2022-08-19T06:38:59;73483.38;;;-145.25;63.03
54146;BME280;40052;49.422;7.738;2022-08-19T06:41:28;73471.34;;;-145.25;63.05
54146;BME280;40052;49.422;7.738;2022-08-19T06:43:55;73467.34;;;-145.25;63.16
54146;BME280;40052;49.422;7.738;2022-08-19T06:46:20;73465.34;;;-145.25;63.44
54146;BME280;40052;49.422;7.738;2022-08-19T06:48:49;73443.31;;;-145.25;63.03
54146;BME280;40052;49.422;7.738;2022-08-19T06:51:16;73465.34;;;-145.25;62.68
54146;BME280;40052;49.422;7.738;2022-08-19T06:53:44;73431.28;;;-145.25;62.68
54146;BME280;40052;49.422;7.738;2022-08-19T06:56:14;73431.28;;;-145.25;62.13
54146;BME280;40052;49.422;7.738;2022-08-19T06:58:46;73425.28;;;-145.25;63.37
54146;BME280;40052;49.422;7.738;2022-08-19T07:01:20;73433.28;;;-145.25;62.50
54146;BME280;40052;49.422;7.738;2022-08-19T07:03:47;73429.28;;;-145.25;62.82
54146;BME280;40052;49.422;7.738;2022-08-19T07:06:17;73431.28;;;-145.25;62.79
54146;BME280;40052;49.422;7.738;2022-08-19T07:08:44;73427.28;;;-145.25;62.26
54146;BME280;40052;49.422;7.738;2022-08-19T07:11:13;73421.28;;;-145.25;63.02
54146;BME280;40052;49.422;7.738;2022-08-19T07:13:39;73407.25;;;-145.25;62.42
54146;BME280;40052;49.422;7.738;2022-08-19T07:16:07;73411.25;;;-145.25;62.23
54146;BME280;40052;49.422;7.738;2022-08-19T07:18:35;73413.25;;;-145.25;62.39
54146;BME280;40052;49.422;7.738;2022-08-19T07:21:13;73417.25;;;-145.25;62.16
54146;BME280;40052;49.422;7.738;2022-08-19T07:23:39;73379.19;;;-145.25;61.59
54146;BME280;40052;49.422;7.738;2022-08-19T07:26:12;73371.19;;;-145.25;62.12
54146;BME280;40052;49.422;7.738;2022-08-19T07:28:38;73379.19;;;-145.25;61.93
54146;BME280;40052;49.422;7.738;2022-08-19T07:31:07;73361.16;;;-145.25;62.09
54146;BME280;40052;49.422;7.738;2022-08-19T07:33:34;73353.16;;;-145.25;61.38
54146;BME280;40052;49.422;7.738;2022-08-19T07:36:03;73341.13;;;-145.25;61.56
54146;BME280;40052;49.422;7.738;2022-08-19T07:38:30;73337.13;;;-145.25;61.07
54146;BME280;40052;49.422;7.738;2022-08-19T07:40:58;73317.09;;;-145.25;60.86
54146;BME280;40052;49.422;7.738;2022-08-19T07:43:26;73299.06;;;-145.25;60.33
54146;BME280;40052;49.422;7.738;2022-08-19T07:45:55;73285.03;;;-145.25;60.41
54146;BME280;40052;49.422;7.738;2022-08-19T07:48:27;73267.00;;;-145.25;60.36
54146;BME280;40052;49.422;7.738;2022-08-19T07:51:02;73273.03;;;-145.25;59.46
54146;BME280;40052;49.422;7.738;2022-08-19T07:53:30;73279.03;;;-145.25;59.14
54146;BME280;40052;49.422;7.738;2022-08-19T07:55:55;73277.03;;;-145.25;59.77
54146;BME280;40052;49.422;7.738;2022-08-19T07:58:31;73275.03;;;-145.25;59.75
54146;BME280;40052;49.422;7.738;2022-08-19T08:00:57;73244.97;;;-145.25;59.19
54146;BME280;40052;49.422;7.738;2022-08-19T08:03:22;73240.97;;;-145.25;59.49
54146;BME280;40052;49.422;7.738;2022-08-19T08:06:07;73234.97;;;-145.25;58.33
54146;BME280;40052;49.422;7.738;2022-08-19T08:08:58;73244.97;;;-145.25;58.59
54146;BME280;40052;49.422;7.738;2022-08-19T08:11:46;73224.94;;;-145.25;58.42
54146;BME280;40052;49.422;7.738;2022-08-19T08:14:22;73196.91;;;-145.25;57.67
54146;BME280;40052;49.422;7.738;2022-08-19T08:16:48;73174.88;;;-145.25;58.31
54146;BME280;40052;49.422;7.738;2022-08-19T08:19:18;73144.81;;;-145.25;56.93
54146;BME280;40052;49.422;7.738;2022-08-19T08:21:48;73198.91;;;-145.25;57.64
54146;BME280;40052;49.422;7.738;2022-08-19T08:24:14;73188.88;;;-145.25;57.75
54146;BME280;40052;49.422;7.738;2022-08-19T08:26:42;73172.84;;;-145.25;57.01
54146;BME280;40052;49.422;7.738;2022-08-19T08:29:12;73192.91;;;-145.25;56.83
54146;BME280;40052;49.422;7.738;2022-08-19T08:31:41;73190.88;;;-145.25;57.40
54146;BME280;40052;49.422;7.738;2022-08-19T08:34:08;73174.88;;;-145.25;56.66
54146;BME280;40052;49.422;7.738;2022-08-19T08:36:43;73180.88;;;-145.25;56.81
54146;BME280;40052;49.422;7.738;2022-08-19T08:39:14;73160.84;;;-145.25;56.59
54146;BME280;40052;49.422;7.738;2022-08-19T08:42:05;73134.81;;;-145.25;56.41
54146;BME280;40052;49.422;7.738;2022-08-19T08:47:04;73112.75;;;-145.25;55.53
54146;BME280;40052;49.422;7.738;2022-08-19T08:49:40;73154.84;;;-145.25;55.90
54146;BME280;40052;49.422;7.738;2022-08-19T08:52:11;73150.81;;;-145.25;55.71
54146;BME280;40052;49.422;7.738;2022-08-19T08:54:44;73130.78;;;-145.25;55.39
54146;BME280;40052;49.422;7.738;2022-08-19T08:57:14;73130.78;;;-145.25;55.05
54146;BME280;40052;49.422;7.738;2022-08-19T08:59:41;73086.72;;;-145.25;54.76
54146;BME280;40052;49.422;7.738;2022-08-19T09:02:09;73068.69;;;-145.25;53.99
54146;BME280;40052;49.422;7.738;2022-08-19T09:04:36;73084.72;;;-145.25;54.26
54146;BME280;40052;49.422;7.738;2022-08-19T09:07:23;73086.72;;;-145.25;54.36
54146;BME280;40052;49.422;7.738;2022-08-19T09:09:54;73084.72;;;-145.25;53.35
54146;BME280;40052;49.422;7.738;2022-08-19T09:15:11;73098.75;;;-145.25;53.60
54146;BME280;40052;49.422;7.738;2022-08-19T09:17:37;73104.75;;;-145.25;53.62
54146;BME280;40052;49.422;7.738;2022-08-19T09:20:17;73120.78;;;-145.25;53.04
54146;BME280;40052;49.422;7.738;2022-08-19T09:22:43;73136.81;;;-145.25;53.14
54146;BME280;40052;49.422;7.738;2022-08-19T09:25:14;73130.78;;;-145.25;52.62
54146;BME280;40052;49.422;7.738;2022-08-19T09:27:41;73112.75;;;-145.25;53.19
54146;BME280;40052;49.422;7.738;2022-08-19T09:30:09;73140.81;;;-145.25;52.54
54146;BME280;40052;49.422;7.738;2022-08-19T09:32:35;73136.81;;;-145.25;51.15
54146;BME280;40052;49.422;7.738;2022-08-19T09:35:01;73130.78;;;-145.25;51.23
54146;BME280;40052;49.422;7.738;2022-08-19T09:37:30;73084.72;;;-145.25;51.39
54146;BME280;40052;49.422;7.738;2022-08-19T09:39:58;73034.63;;;-145.25;50.50
54146;BME280;40052;49.422;7.738;2022-08-19T09:42:24;72996.59;;;-145.25;49.82
54146;BME280;40052;49.422;7.738;2022-08-19T09:44:51;72998.59;;;-145.25;49.02
54146;BME280;40052;49.422;7.738;2022-08-19T09:47:17;72972.53;;;-145.25;49.34
54146;BME280;40052;49.422;7.738;2022-08-19T09:49:42;72916.47;;;-145.25;48.49
54146;BME280;40052;49.422;7.738;2022-08-19T09:52:13;72886.41;;;-145.25;47.86
54146;BME280;40052;49.422;7.738;2022-08-19T09:54:40;72866.38;;;-145.25;47.76
54146;BME280;40052;49.422;7.738;2022-08-19T09:57:08;72908.44;;;-145.25;47.39
54146;BME280;40052;49.422;7.738;2022-08-19T09:59:36;72950.50;;;-145.25;48.72
54146;BME280;40052;49.422;7.738;2022-08-19T10:02:07;72938.50;;;-145.25;48.97
54146;BME280;40052;49.422;7.738;2022-08-19T10:04:32;72942.50;;;-145.25;48.32
54146;BME280;40052;49.422;7.738;2022-08-19T10:07:16;72966.53;;;-145.25;48.68
54146;BME280;40052;49.422;7.738;2022-08-19T10:09:43;72932.47;;;-145.25;48.43
54146;BME280;40052;49.422;7.738;2022-08-19T10:12:09;72906.44;;;-145.25;48.58
54146;BME280;40052;49.422;7.738;2022-08-19T10:14:38;72858.38;;;-145.25;46.77
54146;BME280;40052;49.422;7.738;2022-08-19T10:17:04;72838.34;;;-145.25;45.39
54146;BME280;40052;49.422;7.738;2022-08-19T10:19:29;72806.28;;;-145.25;45.08
54146;BME280;40052;49.422;7.738;2022-08-19T10:22:03;72786.25;;;-145.25;44.37
54146;BME280;40052;49.422;7.738;2022-08-19T10:24:29;72774.25;;;-145.25;43.92
54146;BME280;40052;49.422;7.738;2022-08-19T10:26:56;72768.22;;;-145.25;43.66
54146;BME280;40052;49.422;7.738;2022-08-19T10:29:21;72742.19;;;-145.25;44.09
54146;BME280;40052;49.422;7.738;2022-08-19T10:31:47;72758.22;;;-145.25;43.74
54146;BME280;40052;49.422;7.738;2022-08-19T10:34:12;72750.22;;;-145.25;44.00
54146;BME280;40052;49.422;7.738;2022-08-19T10:36:38;72714.16;;;-145.25;43.47
54146;BME280;40052;49.422;7.738;2022-08-19T10:39:08;72692.13;;;-145.25;42.90
54146;BME280;40052;49.422;7.738;2022-08-19T10:41:38;72684.09;;;-145.25;42.85
54146;BME280;40052;49.422;7.738;2022-08-19T10:44:09;72670.09;;;-145.25;42.45
54146;BME280;40052;49.422;7.738;2022-08-19T10:46:37;72640.03;;;-145.25;41.94
54146;BME280;40052;49.422;7.738;2022-08-19T10:49:05;72678.09;;;-145.25;41.42
54146;BME280;40052;49.422;7.738;2022-08-19T10:51:31;72668.09;;;-145.25;42.02
54146;BME280;40052;49.422;7.738;2022-08-19T10:54:18;72710.16;;;-145.25;42.15
54146;BME280;40052;49.422;7.738;2022-08-19T10:56:46;72674.09;;;-145.25;41.95
54146;BME280;40052;49.422;7.738;2022-08-19T10:59:26;72652.06;;;-145.25;41.25
54146;BME280;40052;49.422;7.738;2022-08-19T11:02:00;72620.00;;;-145.25;40.99
54146;BME280;40052;49.422;7.738;2022-08-19T11:04:28;72589.97;;;-145.25;40.60
54146;BME280;40052;49.422;7.738;2022-08-19T11:06:55;72604.00;;;-145.25;39.71
54146;BME280;40052;49.422;7.738;2022-08-19T11:09:23;72579.94;;;-145.25;39.79
54146;BME280;40052;49.422;7.738;2022-08-19T11:11:50;72606.00;;;-145.25;39.50
54146;BME280;40052;49.422;7.738;2022-08-19T11:14:17;72591.97;;;-145.25;39.74
54146;BME280;40052;49.422;7.738;2022-08-19T11:16:54;72557.91;;;-145.25;38.68
54146;BME280;40052;49.422;7.738;2022-08-19T11:19:24;72511.84;;;-145.25;38.85
54146;BME280;40052;49.422;7.738;2022-08-19T11:21:52;72489.81;;;-145.25;38.93
54146;BME280;40052;49.422;7.738;2022-08-19T11:24:21;72449.75;;;-145.25;38.70
54146;BME280;40052;49.422;7.738;2022-08-19T11:26:48;72463.78;;;-145.25;38.29
54146;BME280;40052;49.422;7.738;2022-08-19T11:29:15;72457.78;;;-145.25;37.47
54146;BME280;40052;49.422;7.738;2022-08-19T11:31:43;72445.75;;;-145.25;37.77
54146;BME280;40052;49.422;7.738;2022-08-19T11:34:12;72417.72;;;-145.25;37.31
54146;BME280;40052;49.422;7.738;2022-08-19T11:36:41;72395.69;;;-145.25;36.84
54146;BME280;40052;49.422;7.738;2022-08-19T11:39:09;72359.63;;;-145.25;37.15
54146;BME280;40052;49.422;7.738;2022-08-19T11:41:35;72353.63;;;-145.25;35.94
54146;BME280;40052;49.422;7.738;2022-08-19T11:44:04;72375.66;;;-145.25;36.11
54146;BME280;40052;49.422;7.738;2022-08-19T11:46:32;72425.72;;;-145.25;36.24
54146;BME280;40052;49.422;7.738;2022-08-19T11:48:58;72439.75;;;-145.25;36.71
54146;BME280;40052;49.422;7.738;2022-08-19T11:51:27;72519.88;;;-145.25;37.71
54146;BME280;40052;49.422;7.738;2022-08-19T11:53:54;72585.97;;;-145.25;37.69
54146;BME280;40052;49.422;7.738;2022-08-19T11:56:21;72549.91;;;-145.25;37.79
54146;BME280;40052;49.422;7.738;2022-08-19T11:58:47;72501.84;;;-145.25;37.36
54146;BME280;40052;49.422;7.738;2022-08-19T12:01:18;72545.91;;;-145.25;37.73
54146;BME280;40052;49.422;7.738;2022-08-19T12:03:46;72507.84;;;-145.25;37.75
54146;BME280;40052;49.422;7.738;2022-08-19T12:06:15;72459.78;;;-145.25;37.28
54146;BME280;40052;49.422;7.738;2022-08-19T12:08:44;72427.72;;;-145.25;37.47
54146;BME280;40052;49.422;7.738;2022-08-19T12:11:10;72445.75;;;-145.25;36.17
54146;BME280;40052;49.422;7.738;2022-08-19T12:13:39;72393.69;;;-145.25;35.67
54146;BME280;40052;49.422;7.738;2022-08-19T12:16:11;72347.63;;;-145.25;35.92
54146;BME280;40052;49.422;7.738;2022-08-19T12:18:38;72357.63;;;-145.25;35.22
54146;BME280;40052;49.422;7.738;2022-08-19T12:21:09;72347.63;;;-145.25;35.07
54146;BME280;40052;49.422;7.738;2022-08-19T12:23:36;72331.59;;;-145.25;35.59
54146;BME280;40052;49.422;7.738;2022-08-19T12:26:02;72309.56;;;-145.25;35.36
54146;BME280;40052;49.422;7.738;2022-08-19T12:28:28;72365.66;;;-145.25;35.69
54146;BME280;40052;49.422;7.738;2022-08-19T12:30:58;72329.59;;;-145.25;35.64
54146;BME280;40052;49.422;7.738;2022-08-19T12:33:23;72309.56;;;-145.25;34.99
54146;BME280;40052;49.422;7.738;2022-08-19T12:35:52;72311.56;;;-145.25;35.11
54146;BME280;40052;49.422;7.738;2022-08-19T12:38:18;72317.59;;;-145.25;35.16
54146;BME280;40052;49.422;7.738;2022-08-19T12:40:47;72265.50;;;-145.25;34.32
54146;BME280;40052;49.422;7.738;2022-08-19T12:43:17;72251.50;;;-145.25;34.43
54146;BME280;40052;49.422;7.738;2022-08-19T12:45:46;72253.50;;;-145.25;33.56
54146;BME280;40052;49.422;7.738;2022-08-19T12:48:11;72241.47;;;-145.25;32.98
54146;BME280;40052;49.422;7.738;2022-08-19T12:50:43;72279.53;;;-145.25;33.61
54146;BME280;40052;49.422;7.738;2022-08-19T12:53:13;72293.53;;;-145.25;34.16
54146;BME280;40052;49.422;7.738;2022-08-19T12:55:38;72369.66;;;-145.25;34.93